createdAt,value
2023-07-19T00:01:45.634Z,6.85
2023-07-19T00:04:14.010Z,6.07
2023-07-19T00:06:42.397Z,4.50
2023-07-19T00:09:10.696Z,5.05
2023-07-19T00:11:39.069Z,5.53
2023-07-19T00:14:08.940Z,4.65
2023-07-19T00:16:37.388Z,6.00
2023-07-19T00:19:19.148Z,4.43
2023-07-19T00:21:48.894Z,5.60
2023-07-19T00:24:17.257Z,6.90
2023-07-19T00:26:46.558Z,5.15
2023-07-19T00:29:16.418Z,4.85
2023-07-19T00:31:45.230Z,4.88
2023-07-19T00:34:14.543Z,3.40
2023-07-19T00:36:43.798Z,3.55
2023-07-19T00:39:13.406Z,7.10
2023-07-19T00:41:42.507Z,4.95
2023-07-19T00:44:10.808Z,4.20
2023-07-19T00:46:41.312Z,4.93
2023-07-19T00:49:10.375Z,4.68
2023-07-19T00:51:38.920Z,8.13
2023-07-19T00:54:09.761Z,4.90
2023-07-19T00:56:39.037Z,6.07
2023-07-19T00:59:07.864Z,4.97
2023-07-19T01:01:37.342Z,6.10
2023-07-19T01:04:08.535Z,5.57
2023-07-19T01:06:36.919Z,4.90
2023-07-19T01:09:05.915Z,3.70
2023-07-19T01:11:34.269Z,7.05
2023-07-19T01:14:02.647Z,5.68
2023-07-19T01:16:32.403Z,4.95
2023-07-19T01:19:01.579Z,6.93
2023-07-19T01:21:31.962Z,5.90
2023-07-19T01:24:01.860Z,6.18
2023-07-19T01:26:30.189Z,4.18
2023-07-19T01:28:59.958Z,3.80
2023-07-19T01:31:29.110Z,4.28
2023-07-19T01:33:57.758Z,4.65
2023-07-19T01:36:27.325Z,5.18
2023-07-19T01:38:55.849Z,3.75
2023-07-19T01:41:25.801Z,5.13
2023-07-19T01:43:55.575Z,5.13
2023-07-19T01:46:24.328Z,6.82
2023-07-19T01:48:52.710Z,4.22
2023-07-19T01:51:21.236Z,5.45
2023-07-19T01:53:49.774Z,3.47
2023-07-19T01:56:18.067Z,6.15
2023-07-19T01:58:47.762Z,4.70
2023-07-19T02:01:17.973Z,4.75
2023-07-19T02:03:46.443Z,5.15
2023-07-19T02:06:15.152Z,5.13
2023-07-19T02:08:43.461Z,5.18
2023-07-19T02:11:11.993Z,5.95
2023-07-19T02:13:40.466Z,5.30
2023-07-19T02:16:10.351Z,3.97
2023-07-19T02:18:39.203Z,6.40
2023-07-19T02:21:07.507Z,5.75
2023-07-19T02:23:36.326Z,4.43
2023-07-19T02:26:04.706Z,5.53
2023-07-19T02:28:33.022Z,4.35
2023-07-19T02:31:01.360Z,4.88
2023-07-19T02:33:33.498Z,6.32
2023-07-19T02:36:02.005Z,5.53
2023-07-19T02:38:30.331Z,5.72
2023-07-19T02:41:02.135Z,7.68
2023-07-19T02:43:31.488Z,7.35
2023-07-19T02:45:59.945Z,6.03
2023-07-19T02:48:28.208Z,8.15
2023-07-19T02:50:59.770Z,5.55
2023-07-19T02:53:28.205Z,5.35
2023-07-19T02:55:56.493Z,5.38
2023-07-19T02:58:26.152Z,5.18
2023-07-19T03:00:55.566Z,6.00
2023-07-19T03:03:24.280Z,7.70
2023-07-19T03:05:52.664Z,6.60
2023-07-19T03:08:22.371Z,6.85
2023-07-19T03:10:54.824Z,6.30
2023-07-19T03:13:23.318Z,6.22
2023-07-19T03:15:51.842Z,8.00
2023-07-19T03:18:20.188Z,6.20
2023-07-19T03:20:48.673Z,7.25
2023-07-19T03:23:17.038Z,6.30
2023-07-19T03:25:46.863Z,7.10
2023-07-19T03:28:15.210Z,5.97
2023-07-19T03:30:43.665Z,6.35
2023-07-19T03:33:13.694Z,11.02
2023-07-19T03:35:42.053Z,8.30
2023-07-19T03:38:10.370Z,7.85
2023-07-19T03:40:38.877Z,5.20
2023-07-19T03:43:08.634Z,6.38
2023-07-19T03:45:37.557Z,8.65
2023-07-19T03:48:06.625Z,8.80
2023-07-19T03:50:36.260Z,6.78
2023-07-19T03:53:05.754Z,8.77
2023-07-19T03:55:34.952Z,10.13
2023-07-19T03:58:04.986Z,8.68
2023-07-19T04:00:35.070Z,9.73
2023-07-19T04:03:03.486Z,8.15
2023-07-19T04:05:31.947Z,9.90
2023-07-19T04:08:02.590Z,7.30
2023-07-19T04:10:32.287Z,10.05
2023-07-19T04:13:00.648Z,9.40
2023-07-19T04:15:29.186Z,12.15
2023-07-19T04:17:59.032Z,10.75
2023-07-19T04:20:28.601Z,8.43
2023-07-19T04:22:57.387Z,11.15
2023-07-19T04:25:25.953Z,11.63
2023-07-19T04:27:55.287Z,10.27
2023-07-19T04:30:23.657Z,10.02
2023-07-19T04:32:56.344Z,8.75
2023-07-19T04:35:26.505Z,16.48
2023-07-19T04:37:55.226Z,8.98
2023-07-19T04:40:23.951Z,10.10
2023-07-19T04:42:53.250Z,9.57
2023-07-19T04:45:22.775Z,10.55
2023-07-19T04:47:51.372Z,9.15
2023-07-19T04:50:20.009Z,10.10
2023-07-19T04:52:49.763Z,10.02
2023-07-19T04:55:18.804Z,10.63
2023-07-19T04:57:47.452Z,8.98
2023-07-19T05:00:19.271Z,10.93
2023-07-19T05:02:48.369Z,8.95
2023-07-19T05:05:16.737Z,8.48
2023-07-19T05:07:45.078Z,9.57
2023-07-19T05:10:14.869Z,7.20
2023-07-19T05:12:43.305Z,7.45
2023-07-19T05:15:12.412Z,6.25
2023-07-19T05:17:40.792Z,6.78
2023-07-19T05:20:10.398Z,8.60
2023-07-19T05:22:39.848Z,6.88
2023-07-19T05:25:10.630Z,6.63
2023-07-19T05:27:40.674Z,5.55
2023-07-19T05:30:10.614Z,6.55
2023-07-19T05:32:39.071Z,6.97
2023-07-19T05:35:08.431Z,5.95
2023-07-19T05:37:36.722Z,11.38
2023-07-19T05:40:06.193Z,10.73
2023-07-19T05:42:34.590Z,12.27
2023-07-19T05:45:04.730Z,11.20
2023-07-19T05:47:33.056Z,8.40
2023-07-19T05:50:01.700Z,8.20
2023-07-19T05:52:30.303Z,8.45
2023-07-19T05:54:58.827Z,11.88
2023-07-19T05:57:27.174Z,9.85
2023-07-19T06:00:03.542Z,10.05
2023-07-19T06:02:53.326Z,6.78
2023-07-19T06:05:25.433Z,6.10
2023-07-19T06:07:54.400Z,7.75
2023-07-19T06:10:23.034Z,6.75
2023-07-19T06:12:51.808Z,9.13
2023-07-19T06:15:20.282Z,8.27
2023-07-19T06:17:50.014Z,6.07
2023-07-19T06:20:18.498Z,5.03
2023-07-19T06:22:47.057Z,8.55
2023-07-19T06:25:16.062Z,11.18
2023-07-19T06:27:44.635Z,7.90
2023-07-19T06:30:14.353Z,7.75
2023-07-19T06:32:42.783Z,6.63
2023-07-19T06:35:12.698Z,6.05
2023-07-19T06:37:40.962Z,9.35
2023-07-19T06:40:10.308Z,5.32
2023-07-19T06:42:38.831Z,7.60
2023-07-19T06:45:08.332Z,10.48
2023-07-19T06:47:36.703Z,6.03
2023-07-19T06:50:05.933Z,7.20
2023-07-19T06:52:36.582Z,6.78
2023-07-19T06:55:06.096Z,6.70
2023-07-19T06:57:34.449Z,8.77
2023-07-19T07:00:04.535Z,6.20
2023-07-19T07:02:34.092Z,7.55
2023-07-19T07:05:02.719Z,5.63
2023-07-19T07:07:31.091Z,7.25
2023-07-19T07:10:05.983Z,8.95
2023-07-19T07:12:34.803Z,6.97
2023-07-19T07:15:03.525Z,6.55
2023-07-19T07:17:34.256Z,6.55
2023-07-19T07:20:02.521Z,9.32
2023-07-19T07:22:30.960Z,8.73
2023-07-19T07:25:01.048Z,8.32
2023-07-19T07:27:29.713Z,11.20
2023-07-19T07:29:58.139Z,8.60
2023-07-19T07:32:26.667Z,5.25
2023-07-19T07:34:54.972Z,9.35
2023-07-19T07:37:23.533Z,5.40
2023-07-19T07:39:51.799Z,7.55
2023-07-19T07:42:25.016Z,9.95
2023-07-19T07:44:53.392Z,6.90
2023-07-19T07:47:21.761Z,6.68
2023-07-19T07:49:50.263Z,7.13
2023-07-19T07:52:18.627Z,10.70
2023-07-19T07:54:47.002Z,9.43
2023-07-19T07:57:15.291Z,6.63
2023-07-19T07:59:44.968Z,8.52
2023-07-19T08:02:13.318Z,7.78
2023-07-19T08:04:41.787Z,5.53
2023-07-19T08:07:10.106Z,7.20
2023-07-19T08:09:38.542Z,6.10
2023-07-19T08:12:07.923Z,6.65
2023-07-19T08:14:37.357Z,5.55
2023-07-19T08:17:07.181Z,7.25
2023-07-19T08:19:35.862Z,7.32
2023-07-19T08:22:05.941Z,5.75
2023-07-19T08:24:34.803Z,10.70
2023-07-19T08:27:03.143Z,5.97
2023-07-19T08:29:31.473Z,5.85
2023-07-19T08:31:59.744Z,5.22
2023-07-19T08:34:29.398Z,7.45
2023-07-19T08:36:57.735Z,3.22
2023-07-19T08:39:28.262Z,4.65
2023-07-19T08:41:56.541Z,6.05
2023-07-19T08:44:25.140Z,4.78
2023-07-19T08:46:54.083Z,5.40
2023-07-19T08:49:23.110Z,5.65
2023-07-19T08:51:53.028Z,5.03
2023-07-19T08:54:21.457Z,5.20
2023-07-19T08:56:50.254Z,6.03
2023-07-19T08:59:18.558Z,5.65
2023-07-19T09:01:46.979Z,5.95
2023-07-19T09:04:15.358Z,4.43
2023-07-19T09:06:44.463Z,8.13
2023-07-19T09:09:15.219Z,7.88
2023-07-19T09:11:45.309Z,5.18
2023-07-19T09:14:13.680Z,4.80
2023-07-19T09:16:42.423Z,4.30
2023-07-19T09:19:11.896Z,5.65
2023-07-19T09:21:44.825Z,4.47
2023-07-19T09:24:15.734Z,3.38
2023-07-19T09:26:50.320Z,5.40
2023-07-19T09:29:18.806Z,7.75
2023-07-19T09:31:57.633Z,3.15
2023-07-19T09:34:28.759Z,2.88
2023-07-19T09:36:57.667Z,2.63
2023-07-19T09:39:27.668Z,2.00
2023-07-19T09:41:56.679Z,5.50
2023-07-19T09:44:25.709Z,3.55
2023-07-19T09:46:55.658Z,1.98
2023-07-19T09:49:24.591Z,1.75
2023-07-19T09:51:57.343Z,2.15
2023-07-19T09:54:29.196Z,2.10
2023-07-19T09:56:57.542Z,3.22
2023-07-19T09:59:29.994Z,2.85
2023-07-19T10:01:58.604Z,1.23
2023-07-19T10:04:28.132Z,2.45
2023-07-19T10:07:05.538Z,1.77
2023-07-19T10:09:38.418Z,2.38
2023-07-19T10:12:24.253Z,4.18
2023-07-19T10:14:56.985Z,5.65
2023-07-19T10:17:25.961Z,4.55
2023-07-19T10:20:11.902Z,5.93
2023-07-19T10:22:56.991Z,6.35
2023-07-19T10:25:29.551Z,6.90
2023-07-19T10:28:09.278Z,7.15
2023-07-19T10:30:59.097Z,7.78
2023-07-19T10:33:32.530Z,9.10
2023-07-19T10:36:06.018Z,8.23
2023-07-19T10:38:34.888Z,5.57
2023-07-19T10:41:06.535Z,6.15
2023-07-19T10:43:48.537Z,6.88
2023-07-19T10:46:20.371Z,5.90
2023-07-19T10:48:52.136Z,4.85
2023-07-19T10:51:21.743Z,7.10
2023-07-19T10:53:57.924Z,5.35
2023-07-19T10:56:29.064Z,5.50
2023-07-19T10:59:00.469Z,3.55
2023-07-19T11:01:30.454Z,5.68
2023-07-19T11:04:04.355Z,6.05
2023-07-19T11:06:33.284Z,6.15
2023-07-19T11:09:08.532Z,6.32
2023-07-19T11:11:40.322Z,4.88
2023-07-19T11:14:08.924Z,4.05
2023-07-19T11:16:37.388Z,5.68
2023-07-19T11:19:05.839Z,4.05
2023-07-19T11:21:34.304Z,5.03
2023-07-19T11:24:03.754Z,2.97
2023-07-19T11:26:32.291Z,4.68
2023-07-19T11:29:02.020Z,4.90
2023-07-19T11:31:32.652Z,5.13
2023-07-19T11:34:07.945Z,4.60
2023-07-19T11:36:36.591Z,4.30
2023-07-19T11:39:05.264Z,4.60
2023-07-19T11:41:34.657Z,5.43
2023-07-19T11:44:04.411Z,5.20
2023-07-19T11:46:32.782Z,4.32
2023-07-19T11:49:01.543Z,6.85
2023-07-19T11:51:29.953Z,3.85
2023-07-19T11:53:58.497Z,4.53
2023-07-19T11:56:29.278Z,3.88
2023-07-19T11:58:58.567Z,5.38
2023-07-19T12:01:28.874Z,6.78
2023-07-19T12:04:01.553Z,4.38
2023-07-19T12:06:30.597Z,3.22
2023-07-19T12:20:50.955Z,6.30
2023-07-19T12:23:19.396Z,7.00
2023-07-19T12:25:48.636Z,6.47
2023-07-19T12:28:17.550Z,5.78
2023-07-19T12:30:46.504Z,5.25
2023-07-19T12:52:52.420Z,5.82
2023-07-19T12:55:21.425Z,5.47
2023-07-19T12:57:50.132Z,3.58
2023-07-19T13:00:19.788Z,3.63
2023-07-19T13:02:48.403Z,3.47
2023-07-19T13:05:17.148Z,4.22
2023-07-19T13:07:45.474Z,5.45
2023-07-19T13:10:15.728Z,5.63
2023-07-19T13:12:44.170Z,3.47
2023-07-19T13:15:12.803Z,5.35
2023-07-19T13:17:43.003Z,4.40
2023-07-19T13:20:11.829Z,3.75
2023-07-19T13:22:40.961Z,4.68
2023-07-19T13:25:09.909Z,6.13
2023-07-19T13:27:39.682Z,3.58
2023-07-19T13:30:09.485Z,3.85
2023-07-19T13:32:38.092Z,4.95
2023-07-19T13:35:13.292Z,6.07
2023-07-19T13:40:14.776Z,4.32
2023-07-19T13:42:47.239Z,3.97
2023-07-19T13:45:15.721Z,4.63
2023-07-19T13:47:44.749Z,6.30
2023-07-19T13:50:13.304Z,5.90
2023-07-19T13:52:42.221Z,7.80
2023-07-19T13:55:11.066Z,6.68
2023-07-19T13:57:39.538Z,7.00
2023-07-19T14:00:11.118Z,4.03
2023-07-19T14:02:40.332Z,5.18
2023-07-19T14:05:10.798Z,6.43
2023-07-19T14:07:39.381Z,8.25
2023-07-19T14:10:09.285Z,5.43
2023-07-19T14:12:38.361Z,4.97
2023-07-19T14:15:09.518Z,7.32
2023-07-19T14:17:38.524Z,6.18
2023-07-19T14:20:08.260Z,6.35
2023-07-19T14:22:37.447Z,6.50
2023-07-19T14:25:08.010Z,5.80
2023-07-19T14:27:38.131Z,4.85
2023-07-19T14:30:07.964Z,7.10
2023-07-19T14:32:37.915Z,5.53
2023-07-19T14:35:07.038Z,6.55
2023-07-19T14:37:35.588Z,5.32
2023-07-19T14:40:05.242Z,5.35
2023-07-19T14:42:33.683Z,5.05
2023-07-19T14:45:01.912Z,9.82
2023-07-19T14:47:30.338Z,7.13
2023-07-19T14:50:00.290Z,7.85
2023-07-19T14:52:28.770Z,7.75
2023-07-19T14:54:57.217Z,5.05
2023-07-19T14:57:25.668Z,9.70
2023-07-19T15:05:02.184Z,7.30
2023-07-19T15:07:30.721Z,5.93
2023-07-19T15:09:59.039Z,7.65
2023-07-19T15:12:27.551Z,5.80
2023-07-19T15:14:56.002Z,7.65
2023-07-19T15:17:25.909Z,6.22
2023-07-19T15:19:55.088Z,6.70
2023-07-19T15:22:24.979Z,11.85
2023-07-19T15:24:53.346Z,6.95
2023-07-19T15:27:21.863Z,7.18
2023-07-19T15:29:50.439Z,11.40
2023-07-19T15:32:18.785Z,7.45
2023-07-19T15:34:47.222Z,6.70
2023-07-19T15:37:15.482Z,5.38
2023-07-19T15:39:46.144Z,6.07
2023-07-19T15:42:15.055Z,6.30
2023-07-19T15:44:43.373Z,4.88
2023-07-19T15:47:11.662Z,6.97
2023-07-19T15:49:40.028Z,5.50
2023-07-19T15:52:11.709Z,5.18
2023-07-19T15:54:40.002Z,6.57
2023-07-19T15:57:10.076Z,4.70
2023-07-19T15:59:39.151Z,4.30
2023-07-19T16:02:10.674Z,7.47
2023-07-19T16:04:39.255Z,13.63
2023-07-19T16:07:07.606Z,3.78
2023-07-19T16:09:36.202Z,3.10
2023-07-19T16:12:04.806Z,3.60
2023-07-19T16:14:34.470Z,3.22
2023-07-19T16:17:02.865Z,4.72
2023-07-19T16:19:31.341Z,3.97
2023-07-19T16:21:59.646Z,2.08
2023-07-19T16:24:28.087Z,2.00
2023-07-19T16:26:56.368Z,1.35
2023-07-19T16:29:24.794Z,1.40
2023-07-19T16:31:56.956Z,1.83
2023-07-19T16:34:25.460Z,2.33
2023-07-19T16:36:53.817Z,3.47
2023-07-19T16:39:22.232Z,3.47
2023-07-19T16:41:50.620Z,4.35
2023-07-19T16:44:18.860Z,7.82
2023-07-19T16:46:47.295Z,7.65
2023-07-19T16:49:17.216Z,4.70
2023-07-19T16:51:45.962Z,6.10
2023-07-19T16:54:14.263Z,11.63
2023-07-19T16:56:42.573Z,12.73
2023-07-19T16:59:11.008Z,4.60
2023-07-19T17:01:39.394Z,5.10
2023-07-19T17:04:07.810Z,8.23
2023-07-19T17:06:37.509Z,9.98
2023-07-19T17:09:05.896Z,8.30
2023-07-19T17:11:34.668Z,17.15
2023-07-19T17:14:03.019Z,14.10
2023-07-19T17:16:31.480Z,3.45
2023-07-19T17:19:14.557Z,6.45
2023-07-19T17:21:46.186Z,3.28
2023-07-19T17:24:14.862Z,3.85
2023-07-19T17:26:43.224Z,6.30
2023-07-19T17:29:11.545Z,5.70
2023-07-19T17:31:39.896Z,6.40
2023-07-19T17:34:08.239Z,7.40
2023-07-19T17:36:36.543Z,3.55
2023-07-19T17:39:06.264Z,3.85
2023-07-19T17:41:34.672Z,4.43
2023-07-19T17:44:03.549Z,4.28
2023-07-19T17:46:31.870Z,4.00
2023-07-19T17:49:00.328Z,4.72
2023-07-19T17:51:28.698Z,3.58
2023-07-19T17:53:56.973Z,4.75
2023-07-19T17:56:26.823Z,4.38
2023-07-19T17:58:55.235Z,2.80
2023-07-19T18:01:23.725Z,4.82
2023-07-19T18:03:53.141Z,4.53
2023-07-19T18:06:21.760Z,3.47
2023-07-19T18:08:53.012Z,2.88
2023-07-19T18:11:21.612Z,3.35
2023-07-19T18:13:51.804Z,3.78
2023-07-19T18:16:20.239Z,3.60
2023-07-19T18:18:48.554Z,3.15
2023-07-19T18:21:16.952Z,3.92
2023-07-19T18:23:45.500Z,5.70
2023-07-19T18:26:13.784Z,4.05
2023-07-19T18:28:42.035Z,4.35
2023-07-19T18:31:11.842Z,3.13
2023-07-19T18:33:40.207Z,4.45
2023-07-19T18:36:08.538Z,3.47
2023-07-19T18:38:38.335Z,5.82
2023-07-19T18:41:07.133Z,5.72
2023-07-19T18:43:35.858Z,4.57
2023-07-19T18:46:04.293Z,5.15
2023-07-19T18:48:34.560Z,3.80
2023-07-19T18:51:02.940Z,5.00
2023-07-19T18:53:36.926Z,5.05
2023-07-19T18:56:05.660Z,4.55
2023-07-19T18:58:34.265Z,5.78
2023-07-19T19:01:02.681Z,5.03
2023-07-19T19:03:31.312Z,4.03
2023-07-19T19:06:01.197Z,4.95
2023-07-19T19:08:29.805Z,4.70
2023-07-19T19:10:58.086Z,3.45
2023-07-19T19:13:26.504Z,6.38
2023-07-19T19:15:54.868Z,5.72
2023-07-19T19:18:23.244Z,5.53
2023-07-19T19:20:51.925Z,5.18
2023-07-19T19:23:21.596Z,5.30
2023-07-19T19:25:50.308Z,6.00
2023-07-19T19:28:19.186Z,6.88
2023-07-19T19:30:48.049Z,5.72
2023-07-19T19:33:16.433Z,5.15
2023-07-19T19:35:44.838Z,4.53
2023-07-19T19:38:13.363Z,4.13
2023-07-19T19:40:43.743Z,4.68
2023-07-19T19:43:12.113Z,6.60
2023-07-19T19:45:40.349Z,4.35
2023-07-19T19:48:08.669Z,6.55
2023-07-19T19:50:37.027Z,5.43
2023-07-19T19:53:10.227Z,5.97
2023-07-19T19:58:12.203Z,5.53
2023-07-19T20:00:41.957Z,6.30
2023-07-19T20:08:13.353Z,6.95
2023-07-19T20:10:59.189Z,6.10
2023-07-19T20:13:29.358Z,6.10
2023-07-19T20:16:00.680Z,5.50
2023-07-19T20:21:01.287Z,6.20
2023-07-19T20:23:30.009Z,6.32
2023-07-19T20:26:12.720Z,7.07
2023-07-19T20:28:47.691Z,6.43
2023-07-19T20:34:33.748Z,6.95
2023-07-19T20:41:40.178Z,5.38
2023-07-19T20:44:11.251Z,5.22
2023-07-19T20:46:39.904Z,9.52
2023-07-19T20:49:15.117Z,8.73
2023-07-19T20:51:44.666Z,6.85
2023-07-19T20:54:14.867Z,4.68
2023-07-19T20:56:43.884Z,6.25
2023-07-19T20:59:14.576Z,7.90
2023-07-19T21:01:43.933Z,6.70
2023-07-19T21:04:12.256Z,5.95
2023-07-19T21:06:40.549Z,5.63
2023-07-19T21:09:08.896Z,5.57
2023-07-19T21:11:37.342Z,6.53
2023-07-19T21:14:05.703Z,6.95
2023-07-19T21:16:35.869Z,7.50
2023-07-19T21:19:04.257Z,5.47
2023-07-19T21:21:32.588Z,5.60
2023-07-19T21:24:02.416Z,5.45
2023-07-19T21:26:33.469Z,6.25
2023-07-19T21:29:01.766Z,4.38
2023-07-19T21:31:30.104Z,4.70
2023-07-19T21:33:59.828Z,5.28
2023-07-19T21:36:28.173Z,5.05
2023-07-19T21:38:56.516Z,4.35
2023-07-19T21:41:25.279Z,5.22
2023-07-19T21:43:53.662Z,4.05
2023-07-19T21:46:22.379Z,5.45
2023-07-19T21:48:51.041Z,7.28
2023-07-19T21:51:21.081Z,5.70
2023-07-19T21:53:49.630Z,6.53
2023-07-19T21:56:19.531Z,6.28
2023-07-19T21:58:49.150Z,5.80
2023-07-19T22:01:17.525Z,5.93
2023-07-19T22:03:45.916Z,6.28
2023-07-19T22:06:14.447Z,5.97
2023-07-19T22:08:44.527Z,6.35
2023-07-19T22:11:13.068Z,5.30
2023-07-19T22:13:42.970Z,4.95
2023-07-19T22:16:11.352Z,4.90
2023-07-19T22:18:39.716Z,7.88
2023-07-19T22:21:20.921Z,6.65
2023-07-19T22:23:52.136Z,7.43
2023-07-19T22:26:20.847Z,6.07
2023-07-19T22:28:51.725Z,8.20
2023-07-19T22:31:21.074Z,5.82
2023-07-19T22:33:49.538Z,7.47
2023-07-19T22:36:17.809Z,5.30
2023-07-19T22:38:46.094Z,5.32
2023-07-19T22:41:16.350Z,6.45
2023-07-19T22:43:44.660Z,5.13
2023-07-19T22:46:13.244Z,6.40
2023-07-19T22:48:41.564Z,5.28
2023-07-19T22:51:11.742Z,6.35
2023-07-19T22:53:40.162Z,7.38
2023-07-19T22:56:09.000Z,8.60
2023-07-19T22:58:38.644Z,4.70
2023-07-19T23:01:07.167Z,8.02
2023-07-19T23:03:36.423Z,7.32
2023-07-19T23:06:07.101Z,7.35
2023-07-19T23:08:35.608Z,10.32
2023-07-19T23:11:04.383Z,8.73
2023-07-19T23:13:32.678Z,10.52
2023-07-19T23:16:02.635Z,7.65
2023-07-19T23:18:30.992Z,7.30
2023-07-19T23:20:59.278Z,5.85
2023-07-19T23:23:27.950Z,7.32
2023-07-19T23:25:56.489Z,8.93
2023-07-19T23:28:24.844Z,11.68
2023-07-19T23:30:53.161Z,10.75
2023-07-19T23:33:22.990Z,12.93
2023-07-19T23:35:51.800Z,10.00
2023-07-19T23:38:20.171Z,9.90
2023-07-19T23:40:49.353Z,10.63
2023-07-19T23:43:18.573Z,9.80
2023-07-19T23:45:46.908Z,9.45
2023-07-19T23:48:15.223Z,12.45
2023-07-19T23:50:44.961Z,9.60
2023-07-19T23:53:13.471Z,7.53
2023-07-19T23:55:41.748Z,8.63
2023-07-19T23:58:10.037Z,10.10
